sensor_id;sensor_type;location;lat;lon;timestamp;temperature;humidity
60868;DHT22;46702;48.370;10.794;2024-02-21T00:02:21;4.10;99.90
60868;DHT22;46702;48.370;10.794;2024-02-21T00:04:47;4.10;99.90
60868;DHT22;46702;48.370;10.794;2024-02-21T00:07:13;4.10;99.90
60868;DHT22;46702;48.370;10.794;2024-02-21T00:09:38;4.10;99.90
60868;DHT22;46702;48.370;10.794;2024-02-21T00:12:05;4.10;99.90
60868;DHT22;46702;48.370;10.794;2024-02-21T00:14:31;4.20;99.90
60868;DHT22;46702;48.370;10.794;2024-02-21T00:16:57;4.20;99.90
60868;DHT22;46702;48.370;10.794;2024-02-21T00:19:22;4.10;99.90
60868;DHT22;46702;48.370;10.794;2024-02-21T00:21:48;4.10;99.90
60868;DHT22;46702;48.370;10.794;2024-02-21T00:24:14;4.10;99.90
60868;DHT22;46702;48.370;10.794;2024-02-21T00:26:39;4.10;99.90
60868;DHT22;46702;48.370;10.794;2024-02-21T00:29:05;4.10;99.90
60868;DHT22;46702;48.370;10.794;2024-02-21T00:31:31;4.00;99.90
60868;DHT22;46702;48.370;10.794;2024-02-21T00:33:57;4.00;99.90
60868;DHT22;46702;48.370;10.794;2024-02-21T00:36:23;4.10;99.90
60868;DHT22;46702;48.370;10.794;2024-02-21T00:38:49;4.00;99.90
60868;DHT22;46702;48.370;10.794;2024-02-21T00:41:15;4.10;99.90
60868;DHT22;46702;48.370;10.794;2024-02-21T00:43:41;4.00;99.90
60868;DHT22;46702;48.370;10.794;2024-02-21T00:46:07;4.00;99.90
60868;DHT22;46702;48.370;10.794;2024-02-21T00:48:33;4.00;99.90
60868;DHT22;46702;48.370;10.794;2024-02-21T00:51:00;4.10;99.90
60868;DHT22;46702;48.370;10.794;2024-02-21T00:53:25;4.00;99.90
60868;DHT22;46702;48.370;10.794;2024-02-21T00:55:51;3.80;99.90
60868;DHT22;46702;48.370;10.794;2024-02-21T00:58:22;3.80;99.90
60868;DHT22;46702;48.370;10.794;2024-02-21T01:00:48;3.60;99.90
60868;DHT22;46702;48.370;10.794;2024-02-21T01:03:14;3.70;99.90
60868;DHT22;46702;48.370;10.794;2024-02-21T01:05:40;3.70;99.90
60868;DHT22;46702;48.370;10.794;2024-02-21T01:08:06;3.80;99.90
60868;DHT22;46702;48.370;10.794;2024-02-21T01:10:31;3.80;99.90
60868;DHT22;46702;48.370;10.794;2024-02-21T01:12:58;3.90;99.90
60868;DHT22;46702;48.370;10.794;2024-02-21T01:15:24;3.90;99.90
60868;DHT22;46702;48.370;10.794;2024-02-21T01:17:50;3.90;99.90
60868;DHT22;46702;48.370;10.794;2024-02-21T01:20:20;3.90;99.90
60868;DHT22;46702;48.370;10.794;2024-02-21T01:22:46;4.00;99.90
60868;DHT22;46702;48.370;10.794;2024-02-21T01:25:12;4.00;99.90
60868;DHT22;46702;48.370;10.794;2024-02-21T01:27:38;4.00;99.90
60868;DHT22;46702;48.370;10.794;2024-02-21T01:30:05;4.00;99.90
60868;DHT22;46702;48.370;10.794;2024-02-21T01:32:31;4.00;99.90
60868;DHT22;46702;48.370;10.794;2024-02-21T01:34:57;4.00;99.90
60868;DHT22;46702;48.370;10.794;2024-02-21T01:37:23;4.00;99.90
60868;DHT22;46702;48.370;10.794;2024-02-21T01:39:49;4.00;99.90
60868;DHT22;46702;48.370;10.794;2024-02-21T01:42:16;4.00;99.90
60868;DHT22;46702;48.370;10.794;2024-02-21T01:44:42;4.00;99.90
60868;DHT22;46702;48.370;10.794;2024-02-21T01:47:08;4.00;99.90
60868;DHT22;46702;48.370;10.794;2024-02-21T01:49:34;4.00;99.90
60868;DHT22;46702;48.370;10.794;2024-02-21T01:52:00;4.10;99.90
60868;DHT22;46702;48.370;10.794;2024-02-21T01:54:26;4.10;99.90
60868;DHT22;46702;48.370;10.794;2024-02-21T01:56:54;4.10;99.90
60868;DHT22;46702;48.370;10.794;2024-02-21T01:59:21;4.00;99.90
60868;DHT22;46702;48.370;10.794;2024-02-21T02:01:47;4.10;99.90
60868;DHT22;46702;48.370;10.794;2024-02-21T02:04:16;4.10;99.90
60868;DHT22;46702;48.370;10.794;2024-02-21T02:06:41;4.10;99.90
60868;DHT22;46702;48.370;10.794;2024-02-21T02:09:08;4.10;99.90
60868;DHT22;46702;48.370;10.794;2024-02-21T02:11:33;4.10;99.90
60868;DHT22;46702;48.370;10.794;2024-02-21T02:13:59;4.10;99.90
60868;DHT22;46702;48.370;10.794;2024-02-21T02:16:49;4.00;99.90
60868;DHT22;46702;48.370;10.794;2024-02-21T02:19:15;4.00;99.90
60868;DHT22;46702;48.370;10.794;2024-02-21T02:21:46;4.10;99.90
60868;DHT22;46702;48.370;10.794;2024-02-21T02:24:19;4.10;99.90
60868;DHT22;46702;48.370;10.794;2024-02-21T02:26:45;4.10;99.90
60868;DHT22;46702;48.370;10.794;2024-02-21T02:29:11;4.10;99.90
60868;DHT22;46702;48.370;10.794;2024-02-21T02:31:37;4.10;99.90
60868;DHT22;46702;48.370;10.794;2024-02-21T02:34:04;4.10;99.90
60868;DHT22;46702;48.370;10.794;2024-02-21T02:36:35;4.10;99.90
60868;DHT22;46702;48.370;10.794;2024-02-21T02:39:01;4.10;99.90
60868;DHT22;46702;48.370;10.794;2024-02-21T02:41:27;4.10;99.90
60868;DHT22;46702;48.370;10.794;2024-02-21T02:43:52;4.10;99.90
60868;DHT22;46702;48.370;10.794;2024-02-21T02:46:18;4.10;99.90
60868;DHT22;46702;48.370;10.794;2024-02-21T02:48:44;4.00;99.90
60868;DHT22;46702;48.370;10.794;2024-02-21T02:51:10;4.00;99.90
60868;DHT22;46702;48.370;10.794;2024-02-21T02:53:36;4.10;99.90
60868;DHT22;46702;48.370;10.794;2024-02-21T02:56:02;4.10;99.90
60868;DHT22;46702;48.370;10.794;2024-02-21T02:58:28;4.00;99.90
60868;DHT22;46702;48.370;10.794;2024-02-21T03:00:54;4.00;99.90
60868;DHT22;46702;48.370;10.794;2024-02-21T03:03:20;4.10;99.90
60868;DHT22;46702;48.370;10.794;2024-02-21T03:05:46;4.10;99.90
60868;DHT22;46702;48.370;10.794;2024-02-21T03:08:12;4.10;99.90
60868;DHT22;46702;48.370;10.794;2024-02-21T03:10:37;4.10;99.90
60868;DHT22;46702;48.370;10.794;2024-02-21T03:13:03;4.10;99.90
60868;DHT22;46702;48.370;10.794;2024-02-21T03:15:30;4.10;99.90
60868;DHT22;46702;48.370;10.794;2024-02-21T03:17:56;4.20;99.90
60868;DHT22;46702;48.370;10.794;2024-02-21T03:20:22;4.20;99.90
60868;DHT22;46702;48.370;10.794;2024-02-21T03:22:48;4.20;99.90
60868;DHT22;46702;48.370;10.794;2024-02-21T03:25:14;4.00;99.90
60868;DHT22;46702;48.370;10.794;2024-02-21T03:27:40;4.00;99.90
60868;DHT22;46702;48.370;10.794;2024-02-21T03:30:06;4.00;99.90
60868;DHT22;46702;48.370;10.794;2024-02-21T03:32:32;4.00;99.90
60868;DHT22;46702;48.370;10.794;2024-02-21T03:34:59;4.00;99.90
60868;DHT22;46702;48.370;10.794;2024-02-21T03:37:24;4.00;99.90
60868;DHT22;46702;48.370;10.794;2024-02-21T03:39:50;4.10;99.90
60868;DHT22;46702;48.370;10.794;2024-02-21T03:42:16;4.10;99.90
60868;DHT22;46702;48.370;10.794;2024-02-21T03:44:43;4.10;99.90
60868;DHT22;46702;48.370;10.794;2024-02-21T03:47:08;4.10;99.90
60868;DHT22;46702;48.370;10.794;2024-02-21T03:49:36;4.10;99.90
60868;DHT22;46702;48.370;10.794;2024-02-21T03:52:02;4.20;99.90
60868;DHT22;46702;48.370;10.794;2024-02-21T03:54:29;4.30;99.90
60868;DHT22;46702;48.370;10.794;2024-02-21T03:56:54;4.30;99.90
60868;DHT22;46702;48.370;10.794;2024-02-21T03:59:20;4.30;99.90
60868;DHT22;46702;48.370;10.794;2024-02-21T04:01:52;4.40;99.90
60868;DHT22;46702;48.370;10.794;2024-02-21T04:04:18;4.30;99.90
60868;DHT22;46702;48.370;10.794;2024-02-21T04:06:50;4.30;99.90
60868;DHT22;46702;48.370;10.794;2024-02-21T04:09:16;4.40;99.90
60868;DHT22;46702;48.370;10.794;2024-02-21T04:11:42;4.40;99.90
60868;DHT22;46702;48.370;10.794;2024-02-21T04:14:08;4.40;99.90
60868;DHT22;46702;48.370;10.794;2024-02-21T04:16:35;4.40;99.90
60868;DHT22;46702;48.370;10.794;2024-02-21T04:19:00;4.40;99.90
60868;DHT22;46702;48.370;10.794;2024-02-21T04:21:27;4.40;99.90
60868;DHT22;46702;48.370;10.794;2024-02-21T04:23:53;4.30;99.90
60868;DHT22;46702;48.370;10.794;2024-02-21T04:26:19;4.30;99.90
60868;DHT22;46702;48.370;10.794;2024-02-21T04:28:45;4.30;99.90
60868;DHT22;46702;48.370;10.794;2024-02-21T04:31:11;4.40;99.90
60868;DHT22;46702;48.370;10.794;2024-02-21T04:33:37;4.30;99.90
60868;DHT22;46702;48.370;10.794;2024-02-21T04:36:03;4.30;99.90
60868;DHT22;46702;48.370;10.794;2024-02-21T04:38:30;4.30;99.90
60868;DHT22;46702;48.370;10.794;2024-02-21T04:40:56;4.30;99.90
60868;DHT22;46702;48.370;10.794;2024-02-21T04:43:24;4.30;99.90
60868;DHT22;46702;48.370;10.794;2024-02-21T04:45:50;4.30;99.90
60868;DHT22;46702;48.370;10.794;2024-02-21T04:48:19;4.30;99.90
60868;DHT22;46702;48.370;10.794;2024-02-21T04:50:44;4.20;99.90
60868;DHT22;46702;48.370;10.794;2024-02-21T04:53:10;4.20;99.90
60868;DHT22;46702;48.370;10.794;2024-02-21T04:55:36;4.20;99.90
60868;DHT22;46702;48.370;10.794;2024-02-21T04:58:02;4.30;99.90
60868;DHT22;46702;48.370;10.794;2024-02-21T05:00:28;4.30;99.90
60868;DHT22;46702;48.370;10.794;2024-02-21T05:02:54;4.20;99.90
60868;DHT22;46702;48.370;10.794;2024-02-21T05:05:20;4.20;99.90
60868;DHT22;46702;48.370;10.794;2024-02-21T05:07:45;3.80;99.90
60868;DHT22;46702;48.370;10.794;2024-02-21T05:10:13;3.50;99.90
60868;DHT22;46702;48.370;10.794;2024-02-21T05:12:39;3.30;99.90
60868;DHT22;46702;48.370;10.794;2024-02-21T05:15:06;3.30;99.90
60868;DHT22;46702;48.370;10.794;2024-02-21T05:17:31;3.40;99.90
60868;DHT22;46702;48.370;10.794;2024-02-21T05:19:57;3.50;99.90
60868;DHT22;46702;48.370;10.794;2024-02-21T05:22:23;3.50;99.90
60868;DHT22;46702;48.370;10.794;2024-02-21T05:24:49;3.40;99.90
60868;DHT22;46702;48.370;10.794;2024-02-21T05:27:14;3.50;99.90
60868;DHT22;46702;48.370;10.794;2024-02-21T05:29:40;3.60;99.90
60868;DHT22;46702;48.370;10.794;2024-02-21T05:32:06;3.70;99.90
60868;DHT22;46702;48.370;10.794;2024-02-21T05:34:32;3.80;99.90
60868;DHT22;46702;48.370;10.794;2024-02-21T05:36:58;3.90;99.90
60868;DHT22;46702;48.370;10.794;2024-02-21T05:39:25;3.90;99.90
60868;DHT22;46702;48.370;10.794;2024-02-21T05:41:51;4.00;99.90
60868;DHT22;46702;48.370;10.794;2024-02-21T05:44:16;4.00;99.90
60868;DHT22;46702;48.370;10.794;2024-02-21T05:46:43;4.00;99.90
60868;DHT22;46702;48.370;10.794;2024-02-21T05:49:08;4.00;99.90
60868;DHT22;46702;48.370;10.794;2024-02-21T05:51:35;4.00;99.90
60868;DHT22;46702;48.370;10.794;2024-02-21T05:54:01;4.00;99.90
60868;DHT22;46702;48.370;10.794;2024-02-21T05:56:27;4.00;99.90
60868;DHT22;46702;48.370;10.794;2024-02-21T05:58:53;4.00;99.90
60868;DHT22;46702;48.370;10.794;2024-02-21T06:01:19;4.00;99.90
60868;DHT22;46702;48.370;10.794;2024-02-21T06:03:47;3.90;99.90
60868;DHT22;46702;48.370;10.794;2024-02-21T06:06:12;3.90;99.90
60868;DHT22;46702;48.370;10.794;2024-02-21T06:08:40;3.90;99.90
60868;DHT22;46702;48.370;10.794;2024-02-21T06:11:05;4.00;99.90
60868;DHT22;46702;48.370;10.794;2024-02-21T06:13:31;4.00;99.90
60868;DHT22;46702;48.370;10.794;2024-02-21T06:15:57;4.00;99.90
60868;DHT22;46702;48.370;10.794;2024-02-21T06:18:23;4.00;99.90
60868;DHT22;46702;48.370;10.794;2024-02-21T06:20:48;4.00;99.90
60868;DHT22;46702;48.370;10.794;2024-02-21T06:23:16;4.00;99.90
60868;DHT22;46702;48.370;10.794;2024-02-21T06:25:44;4.00;99.90
60868;DHT22;46702;48.370;10.794;2024-02-21T06:28:11;4.10;99.90
60868;DHT22;46702;48.370;10.794;2024-02-21T06:30:37;4.10;99.90
60868;DHT22;46702;48.370;10.794;2024-02-21T06:33:03;4.10;99.90
60868;DHT22;46702;48.370;10.794;2024-02-21T06:35:29;4.10;99.90
60868;DHT22;46702;48.370;10.794;2024-02-21T06:37:55;4.10;99.90
60868;DHT22;46702;48.370;10.794;2024-02-21T06:40:23;4.20;99.90
60868;DHT22;46702;48.370;10.794;2024-02-21T06:42:49;4.20;99.90
60868;DHT22;46702;48.370;10.794;2024-02-21T06:45:15;4.20;99.90
60868;DHT22;46702;48.370;10.794;2024-02-21T06:47:41;4.30;99.90
60868;DHT22;46702;48.370;10.794;2024-02-21T06:50:07;4.30;99.90
60868;DHT22;46702;48.370;10.794;2024-02-21T06:52:34;4.30;99.90
60868;DHT22;46702;48.370;10.794;2024-02-21T06:55:00;4.30;99.90
60868;DHT22;46702;48.370;10.794;2024-02-21T06:57:26;4.30;99.90
60868;DHT22;46702;48.370;10.794;2024-02-21T06:59:52;4.30;99.90
60868;DHT22;46702;48.370;10.794;2024-02-21T07:02:18;4.30;99.90
60868;DHT22;46702;48.370;10.794;2024-02-21T07:04:44;4.30;99.90
60868;DHT22;46702;48.370;10.794;2024-02-21T07:07:10;4.30;99.90
60868;DHT22;46702;48.370;10.794;2024-02-21T07:09:36;4.30;99.90
60868;DHT22;46702;48.370;10.794;2024-02-21T07:12:02;4.40;99.90
60868;DHT22;46702;48.370;10.794;2024-02-21T07:14:29;4.40;99.90
60868;DHT22;46702;48.370;10.794;2024-02-21T07:16:55;4.50;99.90
60868;DHT22;46702;48.370;10.794;2024-02-21T07:19:22;4.50;99.90
60868;DHT22;46702;48.370;10.794;2024-02-21T07:21:48;4.50;99.90
60868;DHT22;46702;48.370;10.794;2024-02-21T07:24:14;4.50;99.90
60868;DHT22;46702;48.370;10.794;2024-02-21T07:26:43;4.60;99.90
60868;DHT22;46702;48.370;10.794;2024-02-21T07:29:09;4.60;99.90
60868;DHT22;46702;48.370;10.794;2024-02-21T07:31:42;4.60;99.90
60868;DHT22;46702;48.370;10.794;2024-02-21T07:34:08;4.60;99.90
60868;DHT22;46702;48.370;10.794;2024-02-21T07:36:34;4.50;99.90
60868;DHT22;46702;48.370;10.794;2024-02-21T07:39:00;4.50;99.90
60868;DHT22;46702;48.370;10.794;2024-02-21T07:41:26;4.50;99.90
60868;DHT22;46702;48.370;10.794;2024-02-21T07:43:52;4.60;99.90
60868;DHT22;46702;48.370;10.794;2024-02-21T07:46:18;4.50;99.90
60868;DHT22;46702;48.370;10.794;2024-02-21T07:48:46;4.50;99.90
60868;DHT22;46702;48.370;10.794;2024-02-21T07:51:12;4.50;99.90
60868;DHT22;46702;48.370;10.794;2024-02-21T07:53:39;4.50;99.90
60868;DHT22;46702;48.370;10.794;2024-02-21T07:56:07;4.50;99.90
60868;DHT22;46702;48.370;10.794;2024-02-21T07:58:33;4.60;99.90
60868;DHT22;46702;48.370;10.794;2024-02-21T08:00:59;4.60;99.90
60868;DHT22;46702;48.370;10.794;2024-02-21T08:03:24;4.70;99.90
60868;DHT22;46702;48.370;10.794;2024-02-21T08:05:51;4.70;99.90
60868;DHT22;46702;48.370;10.794;2024-02-21T08:08:16;4.80;99.90
60868;DHT22;46702;48.370;10.794;2024-02-21T08:10:45;5.00;99.90
60868;DHT22;46702;48.370;10.794;2024-02-21T08:13:11;5.10;99.90
60868;DHT22;46702;48.370;10.794;2024-02-21T08:15:36;5.10;99.90
60868;DHT22;46702;48.370;10.794;2024-02-21T08:18:04;5.20;99.90
60868;DHT22;46702;48.370;10.794;2024-02-21T08:20:30;5.20;99.90
60868;DHT22;46702;48.370;10.794;2024-02-21T08:22:56;5.30;99.90
60868;DHT22;46702;48.370;10.794;2024-02-21T08:25:21;5.30;99.90
60868;DHT22;46702;48.370;10.794;2024-02-21T08:27:47;5.50;99.90
60868;DHT22;46702;48.370;10.794;2024-02-21T08:30:13;5.60;99.90
60868;DHT22;46702;48.370;10.794;2024-02-21T08:32:39;5.70;99.90
60868;DHT22;46702;48.370;10.794;2024-02-21T08:35:04;5.90;99.90
60868;DHT22;46702;48.370;10.794;2024-02-21T08:37:31;6.10;99.90
60868;DHT22;46702;48.370;10.794;2024-02-21T08:39:56;6.30;99.90
60868;DHT22;46702;48.370;10.794;2024-02-21T08:42:22;6.20;99.90
60868;DHT22;46702;48.370;10.794;2024-02-21T08:44:47;6.40;99.90
60868;DHT22;46702;48.370;10.794;2024-02-21T08:47:13;6.40;99.90
60868;DHT22;46702;48.370;10.794;2024-02-21T08:49:39;6.50;99.90
60868;DHT22;46702;48.370;10.794;2024-02-21T08:52:05;6.70;99.90
60868;DHT22;46702;48.370;10.794;2024-02-21T08:54:31;6.70;99.90
60868;DHT22;46702;48.370;10.794;2024-02-21T08:56:58;6.80;99.90
60868;DHT22;46702;48.370;10.794;2024-02-21T08:59:23;6.90;99.90
60868;DHT22;46702;48.370;10.794;2024-02-21T09:01:51;6.90;99.90
60868;DHT22;46702;48.370;10.794;2024-02-21T09:04:17;7.00;99.90
60868;DHT22;46702;48.370;10.794;2024-02-21T09:06:43;7.00;99.90
60868;DHT22;46702;48.370;10.794;2024-02-21T09:09:10;7.00;99.90
60868;DHT22;46702;48.370;10.794;2024-02-21T09:11:36;7.20;99.90
60868;DHT22;46702;48.370;10.794;2024-02-21T09:14:01;7.40;99.90
60868;DHT22;46702;48.370;10.794;2024-02-21T09:16:31;7.40;99.90
60868;DHT22;46702;48.370;10.794;2024-02-21T09:18:57;7.40;99.90
60868;DHT22;46702;48.370;10.794;2024-02-21T09:21:23;7.50;99.90
60868;DHT22;46702;48.370;10.794;2024-02-21T09:23:48;7.60;99.90
60868;DHT22;46702;48.370;10.794;2024-02-21T09:26:14;7.70;99.90
60868;DHT22;46702;48.370;10.794;2024-02-21T09:28:42;7.80;99.90
60868;DHT22;46702;48.370;10.794;2024-02-21T09:31:08;7.80;99.90
60868;DHT22;46702;48.370;10.794;2024-02-21T09:33:34;7.80;99.90
60868;DHT22;46702;48.370;10.794;2024-02-21T09:35:59;7.90;99.90
60868;DHT22;46702;48.370;10.794;2024-02-21T09:38:25;7.80;99.90
60868;DHT22;46702;48.370;10.794;2024-02-21T09:41:32;7.90;99.90
60868;DHT22;46702;48.370;10.794;2024-02-21T09:44:00;8.00;99.90
60868;DHT22;46702;48.370;10.794;2024-02-21T09:46:55;8.00;99.90
60868;DHT22;46702;48.370;10.794;2024-02-21T09:49:32;8.00;99.90
60868;DHT22;46702;48.370;10.794;2024-02-21T09:52:06;8.20;99.90
60868;DHT22;46702;48.370;10.794;2024-02-21T09:54:34;8.40;99.90
60868;DHT22;46702;48.370;10.794;2024-02-21T09:57:01;8.50;99.90
60868;DHT22;46702;48.370;10.794;2024-02-21T09:59:28;8.30;99.90
60868;DHT22;46702;48.370;10.794;2024-02-21T10:01:53;8.40;99.90
60868;DHT22;46702;48.370;10.794;2024-02-21T10:04:20;8.40;99.90
60868;DHT22;46702;48.370;10.794;2024-02-21T10:06:46;8.40;99.90
60868;DHT22;46702;48.370;10.794;2024-02-21T10:09:25;8.50;99.90
60868;DHT22;46702;48.370;10.794;2024-02-21T10:11:53;8.60;99.90
60868;DHT22;46702;48.370;10.794;2024-02-21T10:14:19;8.70;99.90
60868;DHT22;46702;48.370;10.794;2024-02-21T10:16:47;8.70;99.90
60868;DHT22;46702;48.370;10.794;2024-02-21T10:19:18;8.80;99.90
60868;DHT22;46702;48.370;10.794;2024-02-21T10:21:44;8.90;99.90
60868;DHT22;46702;48.370;10.794;2024-02-21T10:24:12;9.10;99.90
60868;DHT22;46702;48.370;10.794;2024-02-21T10:26:37;9.20;99.90
60868;DHT22;46702;48.370;10.794;2024-02-21T10:29:03;9.20;99.90
60868;DHT22;46702;48.370;10.794;2024-02-21T10:31:30;9.30;97.10
60868;DHT22;46702;48.370;10.794;2024-02-21T10:34:02;9.40;99.90
60868;DHT22;46702;48.370;10.794;2024-02-21T10:36:31;9.50;99.90
60868;DHT22;46702;48.370;10.794;2024-02-21T10:38:57;9.60;96.10
60868;DHT22;46702;48.370;10.794;2024-02-21T10:41:24;9.50;97.90
60868;DHT22;46702;48.370;10.794;2024-02-21T10:43:54;9.40;95.50
60868;DHT22;46702;48.370;10.794;2024-02-21T10:46:21;9.40;95.50
60868;DHT22;46702;48.370;10.794;2024-02-21T10:48:52;9.40;95.70
60868;DHT22;46702;48.370;10.794;2024-02-21T10:51:24;9.50;99.30
60868;DHT22;46702;48.370;10.794;2024-02-21T10:56:58;9.80;95.60
60868;DHT22;46702;48.370;10.794;2024-02-21T10:59:25;9.80;90.00
60868;DHT22;46702;48.370;10.794;2024-02-21T11:01:52;9.80;92.50
60868;DHT22;46702;48.370;10.794;2024-02-21T11:04:18;9.90;89.70
60868;DHT22;46702;48.370;10.794;2024-02-21T11:06:44;9.90;90.50
60868;DHT22;46702;48.370;10.794;2024-02-21T11:09:11;10.00;93.70
60868;DHT22;46702;48.370;10.794;2024-02-21T11:11:55;10.10;92.20
60868;DHT22;46702;48.370;10.794;2024-02-21T11:14:21;10.00;85.20
60868;DHT22;46702;48.370;10.794;2024-02-21T11:16:47;10.00;90.10
60868;DHT22;46702;48.370;10.794;2024-02-21T11:19:26;10.00;81.60
60868;DHT22;46702;48.370;10.794;2024-02-21T11:21:54;10.10;89.90
60868;DHT22;46702;48.370;10.794;2024-02-21T11:24:32;10.30;92.90
60868;DHT22;46702;48.370;10.794;2024-02-21T11:29:33;10.20;78.20
60868;DHT22;46702;48.370;10.794;2024-02-21T11:32:09;10.20;79.60
60868;DHT22;46702;48.370;10.794;2024-02-21T11:34:36;10.20;87.20
60868;DHT22;46702;48.370;10.794;2024-02-21T11:37:02;10.10;84.10
60868;DHT22;46702;48.370;10.794;2024-02-21T11:39:38;10.20;81.40
60868;DHT22;46702;48.370;10.794;2024-02-21T11:42:06;10.30;83.10
60868;DHT22;46702;48.370;10.794;2024-02-21T11:44:33;10.50;92.20
60868;DHT22;46702;48.370;10.794;2024-02-21T11:46:59;10.40;80.00
60868;DHT22;46702;48.370;10.794;2024-02-21T11:49:35;10.60;85.00
60868;DHT22;46702;48.370;10.794;2024-02-21T11:52:03;10.70;81.40
60868;DHT22;46702;48.370;10.794;2024-02-21T11:54:33;10.70;72.50
60868;DHT22;46702;48.370;10.794;2024-02-21T11:56:59;10.70;71.20
60868;DHT22;46702;48.370;10.794;2024-02-21T11:59:25;10.70;73.30
60868;DHT22;46702;48.370;10.794;2024-02-21T12:01:52;10.60;73.50
60868;DHT22;46702;48.370;10.794;2024-02-21T12:04:20;10.70;70.00
60868;DHT22;46702;48.370;10.794;2024-02-21T12:06:46;10.80;84.90
60868;DHT22;46702;48.370;10.794;2024-02-21T12:09:15;10.90;76.70
60868;DHT22;46702;48.370;10.794;2024-02-21T12:11:45;10.90;79.60
60868;DHT22;46702;48.370;10.794;2024-02-21T12:14:16;11.00;76.10
60868;DHT22;46702;48.370;10.794;2024-02-21T12:16:42;11.20;77.00
60868;DHT22;46702;48.370;10.794;2024-02-21T12:19:09;11.10;74.60
60868;DHT22;46702;48.370;10.794;2024-02-21T12:21:35;11.10;73.80
60868;DHT22;46702;48.370;10.794;2024-02-21T12:24:17;11.10;77.30
60868;DHT22;46702;48.370;10.794;2024-02-21T12:26:43;11.20;72.20
60868;DHT22;46702;48.370;10.794;2024-02-21T12:29:09;11.30;77.20
60868;DHT22;46702;48.370;10.794;2024-02-21T12:31:38;11.30;69.80
60868;DHT22;46702;48.370;10.794;2024-02-21T12:34:05;11.40;73.10
60868;DHT22;46702;48.370;10.794;2024-02-21T12:36:33;11.30;66.10
60868;DHT22;46702;48.370;10.794;2024-02-21T12:38:59;11.30;71.50
60868;DHT22;46702;48.370;10.794;2024-02-21T12:41:27;11.30;74.00
60868;DHT22;46702;48.370;10.794;2024-02-21T12:43:53;11.40;78.60
60868;DHT22;46702;48.370;10.794;2024-02-21T12:46:19;11.40;74.50
60868;DHT22;46702;48.370;10.794;2024-02-21T12:48:44;11.50;77.30
60868;DHT22;46702;48.370;10.794;2024-02-21T12:51:10;11.50;74.00
60868;DHT22;46702;48.370;10.794;2024-02-21T12:53:36;11.50;70.80
60868;DHT22;46702;48.370;10.794;2024-02-21T12:56:02;11.50;70.10
60868;DHT22;46702;48.370;10.794;2024-02-21T12:58:27;11.60;75.80
60868;DHT22;46702;48.370;10.794;2024-02-21T13:00:57;11.60;67.00
60868;DHT22;46702;48.370;10.794;2024-02-21T13:03:22;11.60;66.10
60868;DHT22;46702;48.370;10.794;2024-02-21T13:05:48;11.70;70.20
60868;DHT22;46702;48.370;10.794;2024-02-21T13:08:14;11.60;70.10
60868;DHT22;46702;48.370;10.794;2024-02-21T13:10:39;11.70;72.00
60868;DHT22;46702;48.370;10.794;2024-02-21T13:13:05;11.70;67.20
60868;DHT22;46702;48.370;10.794;2024-02-21T13:15:31;11.70;64.90
60868;DHT22;46702;48.370;10.794;2024-02-21T13:17:57;11.70;64.50
60868;DHT22;46702;48.370;10.794;2024-02-21T13:20:26;11.80;64.30
60868;DHT22;46702;48.370;10.794;2024-02-21T13:22:53;11.80;64.80
60868;DHT22;46702;48.370;10.794;2024-02-21T13:25:22;11.80;66.00
60868;DHT22;46702;48.370;10.794;2024-02-21T13:27:48;11.90;62.70
60868;DHT22;46702;48.370;10.794;2024-02-21T13:30:34;11.90;62.10
60868;DHT22;46702;48.370;10.794;2024-02-21T13:32:59;12.00;66.40
60868;DHT22;46702;48.370;10.794;2024-02-21T13:35:25;12.00;64.30
60868;DHT22;46702;48.370;10.794;2024-02-21T13:37:51;11.90;62.30
60868;DHT22;46702;48.370;10.794;2024-02-21T13:40:17;12.00;65.60
60868;DHT22;46702;48.370;10.794;2024-02-21T13:42:42;12.00;65.70
60868;DHT22;46702;48.370;10.794;2024-02-21T13:45:09;12.00;64.00
60868;DHT22;46702;48.370;10.794;2024-02-21T13:47:35;12.00;63.30
60868;DHT22;46702;48.370;10.794;2024-02-21T13:50:05;12.00;60.30
60868;DHT22;46702;48.370;10.794;2024-02-21T13:52:31;11.90;63.80
60868;DHT22;46702;48.370;10.794;2024-02-21T13:54:57;11.90;63.10
60868;DHT22;46702;48.370;10.794;2024-02-21T13:57:23;11.90;62.30
60868;DHT22;46702;48.370;10.794;2024-02-21T13:59:48;11.80;64.00
60868;DHT22;46702;48.370;10.794;2024-02-21T14:02:14;11.80;62.10
60868;DHT22;46702;48.370;10.794;2024-02-21T14:04:40;11.80;63.20
60868;DHT22;46702;48.370;10.794;2024-02-21T14:07:05;11.80;66.90
60868;DHT22;46702;48.370;10.794;2024-02-21T14:09:31;11.80;61.10
60868;DHT22;46702;48.370;10.794;2024-02-21T14:11:58;11.80;69.00
60868;DHT22;46702;48.370;10.794;2024-02-21T14:14:23;11.80;66.50
60868;DHT22;46702;48.370;10.794;2024-02-21T14:16:49;11.80;63.60
60868;DHT22;46702;48.370;10.794;2024-02-21T14:19:15;11.80;67.40
60868;DHT22;46702;48.370;10.794;2024-02-21T14:21:41;11.90;63.20
60868;DHT22;46702;48.370;10.794;2024-02-21T14:24:07;11.90;66.20
60868;DHT22;46702;48.370;10.794;2024-02-21T14:26:33;12.00;62.10
60868;DHT22;46702;48.370;10.794;2024-02-21T14:28:58;12.00;65.10
60868;DHT22;46702;48.370;10.794;2024-02-21T14:31:24;12.00;62.70
60868;DHT22;46702;48.370;10.794;2024-02-21T14:33:53;12.00;62.10
60868;DHT22;46702;48.370;10.794;2024-02-21T14:36:19;11.90;60.70
60868;DHT22;46702;48.370;10.794;2024-02-21T14:38:44;12.00;59.40
60868;DHT22;46702;48.370;10.794;2024-02-21T14:41:10;11.90;64.70
60868;DHT22;46702;48.370;10.794;2024-02-21T14:43:38;11.90;65.60
60868;DHT22;46702;48.370;10.794;2024-02-21T14:46:04;11.90;64.10
60868;DHT22;46702;48.370;10.794;2024-02-21T14:48:31;11.90;65.10
60868;DHT22;46702;48.370;10.794;2024-02-21T14:50:58;11.80;67.30
60868;DHT22;46702;48.370;10.794;2024-02-21T14:53:23;11.70;64.60
60868;DHT22;46702;48.370;10.794;2024-02-21T14:55:49;11.70;63.80
60868;DHT22;46702;48.370;10.794;2024-02-21T14:58:19;11.70;63.40
60868;DHT22;46702;48.370;10.794;2024-02-21T15:00:45;11.60;64.60
60868;DHT22;46702;48.370;10.794;2024-02-21T15:03:12;11.50;68.50
60868;DHT22;46702;48.370;10.794;2024-02-21T15:05:42;11.50;69.00
60868;DHT22;46702;48.370;10.794;2024-02-21T15:08:07;11.50;66.20
60868;DHT22;46702;48.370;10.794;2024-02-21T15:10:35;11.50;69.00
60868;DHT22;46702;48.370;10.794;2024-02-21T15:13:04;11.40;70.90
60868;DHT22;46702;48.370;10.794;2024-02-21T15:15:29;11.50;73.20
60868;DHT22;46702;48.370;10.794;2024-02-21T15:17:56;11.50;70.00
60868;DHT22;46702;48.370;10.794;2024-02-21T15:20:22;11.50;69.10
60868;DHT22;46702;48.370;10.794;2024-02-21T15:22:47;11.40;71.70
60868;DHT22;46702;48.370;10.794;2024-02-21T15:25:14;11.40;73.10
60868;DHT22;46702;48.370;10.794;2024-02-21T15:27:44;11.40;67.50
60868;DHT22;46702;48.370;10.794;2024-02-21T15:30:10;11.40;68.60
60868;DHT22;46702;48.370;10.794;2024-02-21T15:32:37;11.40;72.20